Time;durP1;ratioP1;P1;durP2;ratioP2;P2;SDS_P1;SDS_P2;PMS_P1;PMS_P2;Temp;Humidity;BMP_temperature;BMP_pressure;BME280_temperature;BME280_humidity;BME280_pressure;Samples;Min_cycle;Max_cycle;Signal;HPM_P1;HPM_P2
2024/02/07 00:00:10;;;;;;;7.50;2.83;;;;;;;8.15;100.00;97352.41;6109171;19;20483;-71
2024/02/07 00:02:11;;;;;;;8.23;2.90;;;;;;;8.15;100.00;97360.69;6107951;19;20307;-71
2024/02/07 00:04:11;;;;;;;5.57;2.58;;;;;;;8.22;100.00;97346.13;6110210;19;20036;-71
2024/02/07 00:06:12;;;;;;;4.88;3.30;;;;;;;8.21;100.00;97352.03;6109089;19;20008;-71
2024/02/07 00:08:12;;;;;;;8.18;3.00;;;;;;;8.20;100.00;97331.97;6108414;19;19999;-71
2024/02/07 00:10:13;;;;;;;5.03;3.20;;;;;;;8.14;100.00;97345.31;6109619;19;20571;-72
2024/02/07 00:12:13;;;;;;;4.53;2.70;;;;;;;8.11;100.00;97337.84;6109383;19;20003;-71
2024/02/07 00:14:13;;;;;;;5.07;3.20;;;;;;;8.10;100.00;97322.47;6108739;19;20040;-71
2024/02/07 00:16:14;;;;;;;7.63;3.30;;;;;;;8.14;100.00;97337.06;6110793;19;20448;-71
2024/02/07 00:18:14;;;;;;;5.22;2.70;;;;;;;8.13;100.00;97323.69;6107629;19;20001;-71
2024/02/07 00:20:15;;;;;;;6.45;3.25;;;;;;;8.12;100.00;97324.88;6109123;19;19994;-71
2024/02/07 00:22:15;;;;;;;5.63;3.10;;;;;;;8.12;100.00;97331.16;6109112;19;20228;-71
2024/02/07 00:24:15;;;;;;;7.50;3.60;;;;;;;8.11;100.00;97334.31;6109441;19;20009;-71
2024/02/07 00:26:15;;;;;;;6.40;2.45;;;;;;;8.10;100.00;97316.19;6109294;19;20002;-71
2024/02/07 00:28:16;;;;;;;5.15;2.70;;;;;;;8.07;100.00;97312.25;6108286;19;20001;-71
2024/02/07 00:30:16;;;;;;;6.00;2.80;;;;;;;8.10;100.00;97307.91;6107713;19;20022;-71
2024/02/07 00:32:16;;;;;;;7.60;3.17;;;;;;;8.07;100.00;97326.03;6108571;19;20014;-71
2024/02/07 00:34:17;;;;;;;7.68;2.85;;;;;;;8.13;100.00;97320.94;6108211;19;20036;-71
2024/02/07 00:36:17;;;;;;;6.18;3.10;;;;;;;8.08;100.00;97318.53;6109769;19;19995;-72
2024/02/07 00:38:17;;;;;;;8.07;3.33;;;;;;;8.04;100.00;97299.25;6107423;19;20002;-72
2024/02/07 00:40:17;;;;;;;4.38;2.78;;;;;;;8.09;100.00;97284.31;6108607;19;20011;-71
2024/02/07 00:42:18;;;;;;;6.90;2.95;;;;;;;8.11;100.00;97310.31;6109128;19;19995;-71
2024/02/07 00:44:19;;;;;;;9.25;3.20;;;;;;;8.13;100.00;97299.66;6108784;19;20002;-71
2024/02/07 00:46:19;;;;;;;6.35;3.00;;;;;;;8.16;100.00;97311.88;6103248;19;19995;-71
2024/02/07 00:48:20;;;;;;;6.28;3.17;;;;;;;8.13;100.00;97304.41;6105672;19;20082;-71
2024/02/07 00:50:20;;;;;;;9.45;3.28;;;;;;;8.13;100.00;97283.16;6107252;19;20447;-71
2024/02/07 00:52:21;;;;;;;7.53;3.00;;;;;;;8.15;100.00;97291.81;6108818;19;20031;-71
2024/02/07 00:54:24;;;;;;;7.15;3.42;;;;;;;8.17;100.00;97280.38;6108404;19;20428;-71
2024/02/07 00:56:24;;;;;;;10.75;3.10;;;;;;;8.18;100.00;97257.16;6106185;19;20094;-71
2024/02/07 00:58:25;;;;;;;5.18;2.70;;;;;;;8.19;100.00;97261.47;6106793;19;20030;-71
2024/02/07 01:00:25;;;;;;;5.80;3.08;;;;;;;8.23;100.00;97278.03;6108050;19;20036;-71
2024/02/07 01:02:26;;;;;;;5.93;2.63;;;;;;;8.34;100.00;97278.81;6107703;19;20003;-71
2024/02/07 01:04:26;;;;;;;6.25;3.25;;;;;;;8.37;100.00;97247.78;6107516;19;20010;-71
2024/02/07 01:06:27;;;;;;;4.90;3.13;;;;;;;8.32;100.00;97243.41;6107684;19;20022;-71
2024/02/07 01:08:27;;;;;;;6.63;3.17;;;;;;;8.25;100.00;97237.09;6104610;19;20078;-71
2024/02/07 01:10:27;;;;;;;7.32;3.40;;;;;;;8.28;100.00;97250.91;6105941;19;20451;-71
2024/02/07 01:12:28;;;;;;;9.48;3.50;;;;;;;8.29;100.00;97246.16;6107804;19;20003;-71
2024/02/07 01:14:28;;;;;;;5.97;3.38;;;;;;;8.28;100.00;97239.88;6107327;19;20006;-71
2024/02/07 01:16:28;;;;;;;5.20;3.10;;;;;;;8.36;100.00;97249.75;6108197;19;20062;-71
2024/02/07 01:18:29;;;;;;;5.88;3.47;;;;;;;8.42;100.00;97237.13;6105975;19;20005;-71
2024/02/07 01:20:29;;;;;;;7.50;3.10;;;;;;;8.45;100.00;97241.09;6107313;19;20006;-71
2024/02/07 01:22:29;;;;;;;10.40;3.20;;;;;;;8.40;100.00;97247.75;6107929;19;20708;-71
2024/02/07 01:24:30;;;;;;;8.57;3.42;;;;;;;8.44;100.00;97226.53;6107375;19;20010;-71
2024/02/07 01:26:33;;;;;;;6.68;3.30;;;;;;;8.48;100.00;97231.22;6108603;19;20081;-71
2024/02/07 01:28:34;;;;;;;9.32;3.35;;;;;;;8.50;100.00;97229.66;6105988;19;20455;-71
2024/02/07 01:30:34;;;;;;;7.35;3.08;;;;;;;8.48;100.00;97231.22;6107683;19;20332;-71
2024/02/07 01:32:35;;;;;;;8.88;3.30;;;;;;;8.49;100.00;97230.03;6106088;19;20010;-71
2024/02/07 01:34:35;;;;;;;6.95;3.30;;;;;;;8.42;100.00;97223.34;6106266;19;20356;-71
2024/02/07 01:36:43;;;;;;;5.50;3.00;;;;;;;8.45;100.00;97205.25;6107250;19;20007;-71
2024/02/07 01:38:43;;;;;;;7.43;2.95;;;;;;;8.49;100.00;97216.25;6107118;19;20466;-71
2024/02/07 01:40:48;;;;;;;6.97;3.05;;;;;;;8.53;100.00;97219.81;6107493;19;20407;-71
2024/02/07 01:42:49;;;;;;;8.52;3.17;;;;;;;8.51;100.00;97216.66;6107107;19;20367;-71
2024/02/07 01:44:49;;;;;;;6.25;3.22;;;;;;;8.52;100.00;97216.25;6107568;19;20011;-71
2024/02/07 01:46:51;;;;;;;5.30;2.90;;;;;;;8.53;100.00;97211.56;6103373;19;20402;-71
2024/02/07 01:48:51;;;;;;;5.45;2.80;;;;;;;8.53;100.00;97209.59;6101996;19;20040;-71
2024/02/07 01:50:54;;;;;;;6.00;2.58;;;;;;;8.53;100.00;97217.06;6100165;19;20010;-71
2024/02/07 01:52:58;;;;;;;5.60;2.60;;;;;;;8.60;100.00;97209.56;6100417;19;20006;-71
2024/02/07 01:54:58;;;;;;;8.32;3.45;;;;;;;8.59;100.00;97213.50;6100076;19;20010;-71
2024/02/07 01:56:58;;;;;;;12.85;4.88;;;;;;;8.56;100.00;97213.50;6098766;19;20263;-71
2024/02/07 01:58:59;;;;;;;3.90;2.60;;;;;;;8.54;100.00;97194.63;6099209;19;20654;-71
2024/02/07 02:01:00;;;;;;;7.25;2.88;;;;;;;8.45;100.00;97210.75;6100709;19;20018;-71
2024/02/07 02:03:01;;;;;;;5.50;3.30;;;;;;;8.45;100.00;97202.50;6098966;19;20644;-71
2024/02/07 02:05:03;;;;;;;5.18;3.28;;;;;;;8.53;100.00;97176.50;6100658;19;20015;-71
2024/02/07 02:07:03;;;;;;;7.07;2.92;;;;;;;8.50;100.00;97199.31;6098871;19;20370;-71
2024/02/07 02:09:05;;;;;;;4.18;2.58;;;;;;;8.49;100.00;97200.50;6105512;19;20015;-71
2024/02/07 02:11:08;;;;;;;5.13;2.65;;;;;;;8.49;100.00;97199.72;6106247;19;20455;-71
2024/02/07 02:13:09;;;;;;;5.40;2.85;;;;;;;8.50;100.00;97199.31;6106426;19;20006;-71
2024/02/07 02:15:10;;;;;;;5.50;2.63;;;;;;;8.50;100.00;97187.50;6105756;19;20091;-71
2024/02/07 02:17:10;;;;;;;6.93;2.65;;;;;;;8.49;100.00;97186.72;6104436;19;20034;-71
2024/02/07 02:19:10;;;;;;;5.18;2.90;;;;;;;8.44;100.00;97178.88;6105782;19;20519;-71
2024/02/07 02:21:15;;;;;;;5.10;2.67;;;;;;;8.46;100.00;97198.56;6105764;19;20013;-72
2024/02/07 02:23:36;;;;;;;5.10;2.33;;;;;;;8.43;100.00;97164.28;6105219;19;20024;-71
2024/02/07 02:25:57;;;;;;;4.15;2.97;;;;;;;8.48;100.00;97159.56;6105559;19;20010;-71
2024/02/07 02:28:18;;;;;;;5.53;2.75;;;;;;;8.46;100.00;97151.69;6104221;19;20074;-71
2024/02/07 02:30:33;;;;;;;4.55;2.53;;;;;;;8.52;100.00;97141.81;6001561;19;2006364;-71
2024/02/07 02:32:33;;;;;;;5.80;2.65;;;;;;;8.46;100.00;97137.13;6105548;19;20546;-71
2024/02/07 02:34:35;;;;;;;5.45;2.70;;;;;;;8.43;100.00;97135.94;6104077;19;20023;-72
2024/02/07 02:36:35;;;;;;;3.40;2.00;;;;;;;8.55;100.00;97119.00;6105549;19;20006;-72
2024/02/07 02:38:36;;;;;;;3.80;2.28;;;;;;;8.57;100.00;97121.34;6103291;19;20009;-72
2024/02/07 02:40:36;;;;;;;3.60;2.05;;;;;;;8.55;100.00;97129.22;6104385;19;20014;-71
2024/02/07 02:42:37;;;;;;;4.85;2.80;;;;;;;8.57;100.00;97124.09;6104268;19;20006;-71
2024/02/07 02:44:38;;;;;;;5.53;2.90;;;;;;;8.65;100.00;97145.75;6104520;19;20029;-71
2024/02/07 02:46:38;;;;;;;5.07;2.55;;;;;;;8.67;100.00;97124.06;6103109;19;20002;-71
2024/02/07 02:48:39;;;;;;;4.45;2.25;;;;;;;8.60;100.00;97126.06;6110388;19;20447;-72
2024/02/07 02:50:40;;;;;;;4.00;2.92;;;;;;;8.57;100.00;97121.34;6110812;19;20013;-72
2024/02/07 02:52:40;;;;;;;6.22;2.47;;;;;;;8.57;100.00;97113.88;6112407;19;20015;-71
2024/02/07 02:54:41;;;;;;;4.43;2.55;;;;;;;8.55;100.00;97104.44;6110693;19;20034;-71
2024/02/07 02:56:42;;;;;;;3.75;2.30;;;;;;;8.55;100.00;97102.44;6111747;19;20336;-71
2024/02/07 02:58:42;;;;;;;7.85;2.75;;;;;;;8.56;100.00;97098.50;6109432;19;20086;-71
2024/02/07 03:00:46;;;;;;;5.05;2.85;;;;;;;8.59;100.00;97102.44;6110529;19;20054;-72
2024/02/07 03:02:47;;;;;;;3.53;2.28;;;;;;;8.59;100.00;97094.16;6110768;19;20325;-71
2024/02/07 03:04:49;;;;;;;6.03;2.53;;;;;;;8.62;100.00;97105.19;6111435;19;20098;-71
2024/02/07 03:06:58;;;;;;;6.78;3.00;;;;;;;8.56;100.00;97095.75;6110001;19;20070;-71
2024/02/07 03:09:19;;;;;;;4.75;2.90;;;;;;;8.60;100.00;97109.50;6110679;19;20015;-72
2024/02/07 03:11:23;;;;;;;3.42;2.33;;;;;;;8.62;100.00;97112.69;6112196;19;20058;-72
2024/02/07 03:13:24;;;;;;;6.90;3.17;;;;;;;8.60;100.00;97112.28;6111382;19;20006;-72
2024/02/07 03:15:24;;;;;;;6.57;2.70;;;;;;;8.55;100.00;97107.19;6110941;19;20461;-72
2024/02/07 03:17:25;;;;;;;6.22;3.17;;;;;;;8.52;100.00;97105.19;6110042;19;20002;-72
2024/02/07 03:19:26;;;;;;;4.18;2.75;;;;;;;8.55;100.00;97101.66;6109604;19;20439;-72
2024/02/07 03:21:26;;;;;;;5.68;2.85;;;;;;;8.51;100.00;97073.31;6107852;19;20090;-72
2024/02/07 03:23:28;;;;;;;4.93;3.20;;;;;;;8.57;100.00;97102.06;6111412;19;20042;-71
2024/02/07 03:25:30;;;;;;;5.75;2.70;;;;;;;8.52;100.00;97102.44;6109735;19;20018;-71
2024/02/07 03:27:30;;;;;;;6.75;3.85;;;;;;;8.54;100.00;97108.38;6109957;19;20082;-71
2024/02/07 03:29:32;;;;;;;4.22;2.67;;;;;;;8.49;100.00;97100.50;6108659;19;20038;-71
2024/02/07 03:31:36;;;;;;;6.05;2.92;;;;;;;8.51;100.00;97117.41;6109741;19;20006;-71
2024/02/07 03:33:37;;;;;;;6.22;2.80;;;;;;;8.45;100.00;97100.50;6110109;19;20015;-71
2024/02/07 03:35:37;;;;;;;5.18;2.90;;;;;;;8.54;100.00;97076.06;6110826;19;20021;-71
2024/02/07 03:37:41;;;;;;;7.70;2.97;;;;;;;8.52;100.00;97103.22;6109291;19;20007;-71
2024/02/07 03:39:42;;;;;;;7.07;4.50;;;;;;;8.46;100.00;97082.78;6109903;19;20025;-71
2024/02/07 03:41:43;;;;;;;4.47;3.05;;;;;;;8.45;100.00;97089.50;6108493;19;20020;-71
2024/02/07 03:43:43;;;;;;;4.57;2.53;;;;;;;8.42;100.00;97104.84;6110249;19;20007;-71
2024/02/07 03:45:44;;;;;;;4.75;3.10;;;;;;;8.40;100.00;97096.19;6109723;19;20534;-71
2024/02/07 03:47:45;;;;;;;3.08;2.22;;;;;;;8.40;100.00;97084.38;6108808;19;20002;-71
2024/02/07 03:49:46;;;;;;;4.63;2.70;;;;;;;8.47;100.00;97087.13;6107833;19;20010;-71
2024/02/07 03:51:47;;;;;;;5.82;2.65;;;;;;;8.40;100.00;97085.16;6109476;19;20502;-71
2024/02/07 03:53:47;;;;;;;6.13;2.60;;;;;;;8.39;100.00;97060.75;6109288;19;20026;-71
2024/02/07 03:55:48;;;;;;;3.10;2.55;;;;;;;8.33;100.00;97071.34;6109769;19;20002;-71
2024/02/07 03:57:48;;;;;;;5.05;2.88;;;;;;;8.34;100.00;97066.63;6107993;19;20689;-71
2024/02/07 03:59:49;;;;;;;3.80;2.63;;;;;;;8.23;100.00;97063.91;6108408;19;19999;-71
2024/02/07 04:01:50;;;;;;;5.55;2.97;;;;;;;8.25;100.00;97067.03;6108748;19;20023;-71
2024/02/07 04:03:52;;;;;;;5.68;3.13;;;;;;;8.21;100.00;97066.28;6108521;19;20003;-71
2024/02/07 04:05:52;;;;;;;5.63;2.90;;;;;;;8.21;100.00;97071.00;6109581;19;20006;-71
2024/02/07 04:07:53;;;;;;;9.57;3.13;;;;;;;8.18;100.00;97056.03;6107735;19;20002;-71
2024/02/07 04:09:53;;;;;;;5.65;2.80;;;;;;;8.14;100.00;97058.81;6107605;19;20091;-71
2024/02/07 05:16:01;;;;;;;5.65;3.05;;;;;;;8.03;100.00;97010.44;6106852;19;20022;-72
2024/02/07 05:18:01;;;;;;;5.88;2.55;;;;;;;8.09;100.00;96986.78;6106337;19;20364;-71
2024/02/07 05:20:02;;;;;;;4.85;3.00;;;;;;;8.08;100.00;96996.25;6105873;19;20003;-72
2024/02/07 05:22:02;;;;;;;7.07;2.78;;;;;;;8.06;100.00;96990.34;6106134;19;20037;-72
2024/02/07 05:24:05;;;;;;;4.50;2.30;;;;;;;8.10;100.00;96996.63;6107261;19;19995;-72
2024/02/07 05:26:05;;;;;;;3.43;2.53;;;;;;;8.19;100.00;97002.50;6106527;19;20038;-71
2024/02/07 05:28:06;;;;;;;3.35;2.45;;;;;;;8.15;100.00;96988.75;6105821;19;20673;-72
2024/02/07 05:30:07;;;;;;;5.88;2.70;;;;;;;8.21;100.00;97002.13;6107328;19;20320;-72
2024/02/07 05:32:08;;;;;;;3.85;2.10;;;;;;;8.21;100.00;96972.59;6107066;19;19999;-72
2024/02/07 05:34:08;;;;;;;3.85;2.45;;;;;;;8.15;100.00;96987.97;6107041;19;20010;-72
2024/02/07 05:36:08;;;;;;;5.13;2.38;;;;;;;8.14;100.00;96994.66;6107558;19;20007;-72
2024/02/07 05:38:10;;;;;;;3.78;2.65;;;;;;;8.12;100.00;96994.28;6106237;19;20028;-72
2024/02/07 05:40:11;;;;;;;3.55;2.58;;;;;;;8.14;100.00;96986.41;6106754;19;20028;-72
2024/02/07 05:42:11;;;;;;;4.97;2.53;;;;;;;8.12;100.00;96986.03;6107127;19;20384;-72
2024/02/07 05:44:12;;;;;;;3.58;2.28;;;;;;;8.11;100.00;96993.50;6113347;19;21154;-72
2024/02/07 05:46:12;;;;;;;4.40;2.17;;;;;;;8.11;100.00;96981.69;6113152;19;19994;-72
2024/02/07 05:48:13;;;;;;;6.85;2.42;;;;;;;8.11;100.00;96987.19;6103645;19;20032;-71
2024/02/07 05:50:15;;;;;;;5.97;2.30;;;;;;;8.13;100.00;96982.84;6113492;19;20597;-71
2024/02/07 05:52:15;;;;;;;6.15;3.17;;;;;;;8.16;100.00;96986.78;6114119;19;20010;-71
2024/02/07 05:54:15;;;;;;;3.33;2.05;;;;;;;8.16;100.00;96986.78;6111760;19;20007;-71
2024/02/07 05:56:16;;;;;;;4.50;2.20;;;;;;;8.17;100.00;96988.34;6111642;19;20003;-71
2024/02/07 05:58:16;;;;;;;4.40;2.08;;;;;;;8.15;100.00;96971.44;6111315;19;20003;-71
2024/02/07 06:00:17;;;;;;;4.55;2.20;;;;;;;8.16;100.00;96971.03;6112126;19;20017;-71
2024/02/07 06:02:18;;;;;;;4.80;1.83;;;;;;;8.16;100.00;96979.28;6111259;19;20003;-71
2024/02/07 06:04:19;;;;;;;2.95;1.98;;;;;;;8.18;100.00;96976.91;6113249;19;20003;-71
2024/02/07 06:06:20;;;;;;;3.08;2.05;;;;;;;8.21;100.00;96974.56;6112199;19;19995;-71
2024/02/07 06:08:21;;;;;;;4.00;1.90;;;;;;;8.20;100.00;96979.31;6111567;19;20010;-71
2024/02/07 06:10:21;;;;;;;3.95;1.80;;;;;;;8.22;100.00;96960.41;6112149;19;20018;-72
2024/02/07 06:12:22;;;;;;;4.55;2.08;;;;;;;8.20;100.00;96976.53;6111817;19;20018;-72
2024/02/07 06:14:22;;;;;;;4.40;2.15;;;;;;;8.21;100.00;96982.84;6112809;19;20004;-72
2024/02/07 06:16:23;;;;;;;4.63;1.83;;;;;;;8.15;100.00;96974.97;6112335;19;20006;-71
2024/02/07 06:18:23;;;;;;;2.25;1.73;;;;;;;8.20;100.00;96984.81;6111234;19;20024;-71
2024/02/07 06:20:23;;;;;;;2.50;1.70;;;;;;;8.24;100.00;96979.28;6111664;19;20397;-71
2024/02/07 06:22:23;;;;;;;3.40;2.08;;;;;;;8.22;100.00;96982.44;6112412;19;20052;-71
2024/02/07 06:24:24;;;;;;;6.13;1.95;;;;;;;8.23;100.00;96991.47;6111781;19;20308;-71
2024/02/07 06:26:24;;;;;;;2.65;1.60;;;;;;;8.25;100.00;96987.13;6112196;19;20002;-71
2024/02/07 06:28:25;;;;;;;3.65;1.80;;;;;;;8.22;100.00;96985.19;6111738;19;20472;-71
2024/02/07 06:30:25;;;;;;;2.20;1.55;;;;;;;8.23;100.00;96975.75;6111486;19;20036;-71
2024/02/07 06:32:25;;;;;;;3.10;1.52;;;;;;;8.22;100.00;96985.19;6111977;19;20010;-72
2024/02/07 06:34:25;;;;;;;3.72;1.40;;;;;;;8.23;100.00;96995.03;6111800;19;20709;-72
2024/02/07 06:36:26;;;;;;;2.35;1.55;;;;;;;8.25;100.00;96998.16;6112099;19;20018;-72
2024/02/07 06:38:26;;;;;;;6.38;2.33;;;;;;;8.32;100.00;96989.88;6110741;19;20010;-72
2024/02/07 06:40:30;;;;;;;3.47;1.50;;;;;;;8.24;100.00;96971.78;6111844;19;20034;-72
2024/02/07 06:42:30;;;;;;;2.17;1.33;;;;;;;8.21;100.00;96991.88;6110559;19;20018;-72
2024/02/07 06:44:30;;;;;;;2.97;1.50;;;;;;;8.21;100.00;96980.09;6111136;19;20010;-71
2024/02/07 06:46:31;;;;;;;1.80;1.38;;;;;;;8.15;100.00;96974.19;6110854;19;20427;-71
2024/02/07 06:48:31;;;;;;;1.92;1.45;;;;;;;8.15;100.00;96987.97;6103452;19;20006;-72
2024/02/07 06:50:31;;;;;;;3.30;1.40;;;;;;;8.21;100.00;96989.13;6104113;19;20014;-71
2024/02/07 06:52:32;;;;;;;1.40;1.10;;;;;;;8.10;100.00;96986.38;6103926;19;20006;-71
2024/02/07 06:54:33;;;;;;;2.35;1.40;;;;;;;8.09;100.00;96992.31;6101779;19;20010;-72
2024/02/07 06:56:33;;;;;;;2.90;1.60;;;;;;;8.13;100.00;96993.09;6104469;19;20515;-72
2024/02/07 06:58:33;;;;;;;2.25;1.20;;;;;;;8.10;100.00;96989.16;6103770;19;20654;-72
2024/02/07 07:00:34;;;;;;;2.03;1.35;;;;;;;8.04;100.00;96981.72;6103531;19;20010;-72
2024/02/07 07:02:34;;;;;;;6.40;1.55;;;;;;;8.10;100.00;97002.91;6105210;19;20041;-72
2024/02/07 07:04:34;;;;;;;2.97;1.48;;;;;;;8.12;100.00;97003.34;6104918;19;20011;-72
2024/02/07 07:06:35;;;;;;;2.40;1.60;;;;;;;8.07;100.00;96991.91;6104435;19;20010;-72
2024/02/07 07:08:35;;;;;;;2.78;1.77;;;;;;;8.04;100.00;96998.22;6102947;19;20011;-72
2024/02/07 07:10:35;;;;;;;3.05;1.50;;;;;;;8.06;100.00;97006.88;6103971;19;20018;-72
2024/02/07 07:12:36;;;;;;;5.75;1.75;;;;;;;8.04;100.00;97003.75;6104313;19;20033;-72
2024/02/07 07:14:43;;;;;;;2.72;1.20;;;;;;;8.12;100.00;97027.34;6104016;19;20011;-71
2024/02/07 07:16:43;;;;;;;1.90;1.30;;;;;;;8.17;100.00;97016.69;6103770;19;20325;-72
2024/02/07 07:18:43;;;;;;;3.30;1.27;;;;;;;8.10;100.00;97024.16;6103171;19;20410;-72
2024/02/07 07:20:44;;;;;;;3.05;1.45;;;;;;;8.09;100.00;97025.34;6104423;19;20248;-72
2024/02/07 07:22:44;;;;;;;3.08;1.55;;;;;;;8.02;100.00;97011.59;6102942;19;20010;-71
2024/02/07 07:24:47;;;;;;;2.40;1.40;;;;;;;8.04;100.00;97026.56;6104244;19;20006;-72
2024/02/07 07:26:47;;;;;;;1.60;1.33;;;;;;;8.04;100.00;97051.34;6102872;19;20349;-72
2024/02/07 07:28:47;;;;;;;1.52;1.20;;;;;;;8.06;100.00;97042.69;6104055;19;20835;-72
2024/02/07 07:30:48;;;;;;;3.92;2.38;;;;;;;8.03;100.00;97030.50;6102989;19;19999;-72
2024/02/07 07:32:48;;;;;;;1.67;1.40;;;;;;;8.06;100.00;97043.47;6104102;19;20466;-72
2024/02/07 07:34:48;;;;;;;4.40;1.70;;;;;;;8.01;100.00;97045.84;6103917;19;20450;-72
2024/02/07 07:36:51;;;;;;;2.65;1.48;;;;;;;7.99;100.00;97054.50;6102521;19;20573;-72
2024/02/07 07:38:52;;;;;;;1.60;1.40;;;;;;;8.01;100.00;97049.38;6103991;19;20026;-72
2024/02/07 07:40:52;;;;;;;4.70;1.65;;;;;;;8.03;100.00;97058.03;6103115;19;20428;-72
2024/02/07 07:42:52;;;;;;;3.92;2.42;;;;;;;8.01;100.00;97065.91;6104093;19;20719;-72
2024/02/07 07:44:53;;;;;;;2.42;1.23;;;;;;;8.05;100.00;97071.41;6103353;19;19998;-72
2024/02/07 07:46:53;;;;;;;4.32;1.42;;;;;;;8.10;100.00;97096.56;6101558;19;20003;-72
2024/02/07 07:48:54;;;;;;;1.10;0.80;;;;;;;7.08;100.00;97130.28;6110634;19;20115;-72
2024/02/07 07:50:54;;;;;;;1.58;0.70;;;;;;;5.73;100.00;97158.44;6109395;19;20455;-72
2024/02/07 07:52:54;;;;;;;1.02;0.70;;;;;;;4.87;100.00;97134.75;6109585;19;20066;-72
2024/02/07 07:54:55;;;;;;;1.33;0.70;;;;;;;4.75;100.00;97148.72;6108326;19;20013;-72
2024/02/07 07:56:57;;;;;;;0.93;0.70;;;;;;;4.49;100.00;97142.13;6108850;19;20030;-72
2024/02/07 07:58:58;;;;;;;2.40;0.70;;;;;;;4.20;100.00;97110.78;6109664;19;20017;-72
2024/02/07 08:00:58;;;;;;;1.58;0.80;;;;;;;4.14;100.00;97180.72;6110316;19;20066;-72
2024/02/07 08:02:59;;;;;;;0.77;0.60;;;;;;;3.88;100.00;97154.09;6110372;19;20006;-72
2024/02/07 08:04:59;;;;;;;0.98;0.70;;;;;;;3.68;100.00;97171.75;6109108;19;20515;-72
2024/02/07 08:06:59;;;;;;;0.98;0.55;;;;;;;3.61;100.00;97171.59;6107399;19;20009;-72
2024/02/07 08:08:59;;;;;;;1.08;0.50;;;;;;;3.54;100.00;97191.41;6109453;19;20010;-72
2024/02/07 08:11:02;;;;;;;1.40;0.65;;;;;;;3.31;100.00;97191.41;6109231;19;20013;-72
2024/02/07 08:13:03;;;;;;;0.65;0.60;;;;;;;3.09;100.00;97206.56;6109704;19;20368;-72
2024/02/07 08:15:05;;;;;;;1.27;0.60;;;;;;;3.00;100.00;97199.75;6109079;19;20018;-72
2024/02/07 08:17:05;;;;;;;3.78;0.68;;;;;;;2.86;100.00;97205.69;6108880;19;20011;-72
2024/02/07 08:19:06;;;;;;;0.55;0.52;;;;;;;2.62;100.00;97205.94;6109139;19;20027;-72
2024/02/07 08:21:06;;;;;;;0.60;0.60;;;;;;;2.46;100.00;97214.97;6108896;19;20073;-72
2024/02/07 08:23:06;;;;;;;1.52;0.70;;;;;;;2.41;100.00;97206.28;6109625;19;20007;-72
2024/02/07 08:25:07;;;;;;;0.75;0.68;;;;;;;2.47;100.00;97216.53;6109421;19;20007;-72
2024/02/07 08:27:07;;;;;;;1.45;0.90;;;;;;;2.45;100.00;97213.38;6108334;19;20007;-71
2024/02/07 08:29:08;;;;;;;0.50;0.50;;;;;;;2.52;100.00;97218.22;6108897;19;20395;-72
2024/02/07 08:31:11;;;;;;;2.88;0.50;;;;;;;2.56;100.00;97251.84;6109313;19;20006;-72
2024/02/07 08:33:11;;;;;;;1.85;0.60;;;;;;;2.35;100.00;97237.72;6108751;19;20021;-72
2024/02/07 08:35:11;;;;;;;1.42;0.73;;;;;;;2.39;100.00;97255.75;6108198;19;20359;-72
2024/02/07 08:37:12;;;;;;;0.70;0.70;;;;;;;2.38;100.00;97256.91;6108133;19;20003;-71
2024/02/07 08:39:12;;;;;;;0.50;0.50;;;;;;;2.44;100.00;97268.34;6108619;19;20002;-72
2024/02/07 08:41:12;;;;;;;0.70;0.70;;;;;;;2.44;100.00;97268.34;6108783;19;20362;-72
2024/02/07 08:43:13;;;;;;;1.67;0.80;;;;;;;2.44;100.00;97279.28;6109454;19;20486;-72
2024/02/07 08:45:13;;;;;;;1.42;0.60;;;;;;;2.34;100.00;97264.22;6108809;19;20020;-72
2024/02/07 08:47:13;;;;;;;0.70;0.70;;;;;;;2.41;100.00;97275.31;6107405;19;20009;-72
2024/02/07 08:49:16;;;;;;;0.70;0.70;;;;;;;2.39;100.00;97293.97;6108277;19;20003;-72
2024/02/07 08:51:16;;;;;;;1.08;0.90;;;;;;;2.31;100.00;97275.81;6108433;19;20013;-71
2024/02/07 08:53:16;;;;;;;1.50;1.02;;;;;;;2.34;100.00;97282.53;6108388;19;20070;-71
2024/02/07 08:55:17;;;;;;;0.63;0.60;;;;;;;2.28;100.00;97284.72;6108794;19;20006;-72
2024/02/07 08:57:17;;;;;;;0.68;0.68;;;;;;;2.17;100.00;97302.78;6107075;19;20007;-72
2024/02/07 08:59:17;;;;;;;3.20;1.15;;;;;;;2.07;100.00;97306.00;6108745;19;20010;-72
2024/02/07 09:01:18;;;;;;;1.25;1.00;;;;;;;1.93;100.00;97311.91;6108900;19;20479;-72
2024/02/07 09:03:18;;;;;;;1.45;1.08;;;;;;;1.86;100.00;97304.31;6108204;19;20013;-72
2024/02/07 09:05:19;;;;;;;2.92;1.75;;;;;;;1.82;100.00;97305.38;6108600;19;20463;-72
2024/02/07 09:07:20;;;;;;;2.72;0.90;;;;;;;1.79;100.00;97314.25;6107339;19;20331;-72
2024/02/07 09:09:20;;;;;;;0.70;0.70;;;;;;;1.73;100.00;97308.25;6108041;19;20348;-72
2024/02/07 09:11:20;;;;;;;2.47;1.27;;;;;;;1.73;100.00;97307.47;6108392;19;19999;-72
2024/02/07 09:13:21;;;;;;;1.08;0.80;;;;;;;1.62;100.00;97307.19;6108480;19;20348;-72
2024/02/07 09:15:21;;;;;;;1.20;1.00;;;;;;;1.60;100.00;97310.25;6107101;19;20459;-72
2024/02/07 09:17:25;;;;;;;0.90;0.80;;;;;;;1.57;100.00;97310.13;6107458;19;20009;-72
2024/02/07 09:19:25;;;;;;;1.50;1.02;;;;;;;1.60;100.00;97312.97;6113178;19;20648;-72
2024/02/07 09:21:27;;;;;;;3.10;1.85;;;;;;;1.62;100.00;97305.25;6112633;19;20026;-72
2024/02/07 09:23:27;;;;;;;4.40;2.75;;;;;;;1.72;100.00;97305.88;6113222;19;20345;-71
2024/02/07 09:25:27;;;;;;;6.25;3.08;;;;;;;1.77;100.00;97316.53;6114567;19;20700;-71
2024/02/07 09:27:28;;;;;;;5.97;2.63;;;;;;;1.68;100.00;97306.59;6112779;19;20027;-72
2024/02/07 09:29:29;;;;;;;2.53;1.65;;;;;;;1.59;100.00;97311.41;6113475;19;20340;-72
2024/02/07 09:31:29;;;;;;;3.80;1.77;;;;;;;1.72;100.00;97309.41;6113827;19;20070;-72
2024/02/07 09:33:30;;;;;;;5.43;2.10;;;;;;;1.74;100.00;97311.75;6113532;19;20011;-72
2024/02/07 09:35:30;;;;;;;1.05;0.90;;;;;;;1.78;100.00;97318.13;6113742;19;20018;-72
2024/02/07 09:37:31;;;;;;;5.70;3.35;;;;;;;1.82;100.00;97317.09;6112345;19;20007;-72
2024/02/07 09:39:31;;;;;;;3.80;2.08;;;;;;;1.87;100.00;97316.03;6113343;19;20062;-72
2024/02/07 09:41:33;;;;;;;5.65;2.78;;;;;;;1.81;100.00;97322.88;6113864;19;20086;-71
2024/02/07 09:43:33;;;;;;;13.93;4.57;;;;;;;1.89;100.00;97324.66;6113023;19;20030;-72
2024/02/07 09:45:34;;;;;;;13.30;5.88;;;;;;;1.90;100.00;97324.31;6113601;19;20271;-72
2024/02/07 09:47:43;;;;;;;5.68;3.10;;;;;;;1.94;100.00;97319.75;6112281;19;20007;-71
2024/02/07 09:49:46;;;;;;;4.72;2.75;;;;;;;2.06;100.00;97321.59;6112813;19;20479;-72
2024/02/07 09:51:46;;;;;;;4.63;2.60;;;;;;;2.11;100.00;97323.28;6113166;19;20313;-72
2024/02/07 09:53:47;;;;;;;4.68;2.25;;;;;;;2.08;100.00;97322.06;6113383;19;20018;-71
2024/02/07 09:55:49;;;;;;;5.80;2.08;;;;;;;2.12;100.00;97314.75;6112542;19;20078;-71
2024/02/07 09:57:51;;;;;;;1.00;0.80;;;;;;;2.11;100.00;97326.00;6111844;19;20014;-72
2024/02/07 09:59:52;;;;;;;1.70;1.02;;;;;;;2.13;100.00;97323.72;6112439;19;20034;-72
2024/02/07 10:01:53;;;;;;;0.60;0.60;;;;;;;2.16;100.00;97323.84;6111388;19;20003;-72
2024/02/07 10:03:56;;;;;;;3.03;1.45;;;;;;;2.29;100.00;97321.78;6113057;19;19998;-72
2024/02/07 10:05:58;;;;;;;2.42;1.85;;;;;;;2.35;100.00;97327.78;6112772;19;20002;-72
2024/02/07 10:07:59;;;;;;;2.10;1.30;;;;;;;2.41;100.00;97323.66;6112007;19;20014;-72
2024/02/07 10:10:00;;;;;;;2.10;1.45;;;;;;;2.44;100.00;97325.69;6112243;19;20007;-72
2024/02/07 10:12:01;;;;;;;1.33;0.95;;;;;;;2.48;100.00;97340.19;6112095;19;20007;-71
2024/02/07 10:14:02;;;;;;;1.15;0.85;;;;;;;2.47;100.00;97331.22;6112226;19;20479;-72
2024/02/07 10:16:03;;;;;;;1.75;0.90;;;;;;;2.46;100.00;97334.31;6111627;19;20051;-71
2024/02/07 10:18:03;;;;;;;3.72;2.50;;;;;;;2.48;100.00;97341.00;6110254;19;20456;-72
2024/02/07 10:20:11;;;;;;;3.03;0.80;;;;;;;2.45;100.00;97344.44;6111796;19;20051;-71
2024/02/07 10:22:20;;;;;;;0.60;0.60;;;;;;;2.42;100.00;97341.63;6112065;19;20018;-72
2024/02/07 10:24:20;;;;;;;0.95;0.77;;;;;;;2.38;100.00;97341.53;6112243;19;20021;-72
2024/02/07 10:26:24;;;;;;;1.15;0.90;;;;;;;2.34;100.00;97337.91;6112821;19;20030;-72
2024/02/07 10:28:26;;;;;;;3.28;1.83;;;;;;;2.40;100.00;97328.34;6110136;19;20007;-72
2024/02/07 10:30:26;;;;;;;3.83;2.17;;;;;;;2.45;100.00;97325.31;6111264;19;20019;-72
2024/02/07 10:32:27;;;;;;;4.47;3.03;;;;;;;2.51;100.00;97332.09;6111732;19;20035;-72
2024/02/07 10:34:27;;;;;;;5.13;3.03;;;;;;;2.56;100.00;97327.50;6111842;19;20335;-72